createdAt,value
2023-02-01T00:00:04.973Z,5.35
2023-02-01T00:02:32.273Z,5.37
2023-02-01T00:04:59.718Z,5.44
2023-02-01T00:07:26.667Z,5.35
2023-02-01T00:09:53.656Z,5.40
2023-02-01T00:12:20.088Z,5.44
2023-02-01T00:14:47.609Z,5.41
2023-02-01T00:17:14.490Z,5.37
2023-02-01T00:19:40.919Z,5.42
2023-02-01T00:22:07.353Z,5.49
2023-02-01T00:24:33.792Z,5.48
2023-02-01T00:27:00.766Z,5.41
2023-02-01T00:29:27.187Z,5.41
2023-02-01T00:31:56.923Z,5.35
2023-02-01T00:34:23.917Z,5.41
2023-02-01T00:36:50.959Z,5.43
2023-02-01T00:39:17.872Z,5.51
2023-02-01T00:41:44.411Z,5.48
2023-02-01T00:44:11.664Z,5.47
2023-02-01T00:46:38.766Z,5.53
2023-02-01T00:49:05.875Z,5.47
2023-02-01T00:51:32.303Z,5.44
2023-02-01T00:53:59.277Z,5.46
2023-02-01T00:56:25.812Z,5.44
2023-02-01T00:58:52.797Z,5.55
2023-02-01T01:01:21.580Z,5.50
2023-02-01T01:03:49.311Z,5.52
2023-02-01T01:06:18.132Z,5.54
2023-02-01T01:08:45.229Z,5.57
2023-02-01T01:11:12.106Z,5.56
2023-02-01T01:13:39.169Z,5.57
2023-02-01T01:16:07.095Z,5.51
2023-02-01T01:18:34.094Z,5.47
2023-02-01T01:21:01.383Z,5.51
2023-02-01T01:23:28.535Z,5.54
2023-02-01T01:25:55.644Z,5.54
2023-02-01T01:28:22.575Z,5.48
2023-02-01T01:30:49.558Z,5.47
2023-02-01T01:33:16.748Z,5.50
2023-02-01T01:35:43.743Z,5.56
2023-02-01T01:38:11.794Z,5.58
2023-02-01T01:40:38.300Z,5.66
2023-02-01T01:43:05.246Z,5.71
2023-02-01T01:45:33.184Z,5.72
2023-02-01T01:48:02.615Z,5.77
2023-02-01T01:50:31.280Z,5.74
2023-02-01T01:53:00.434Z,5.75
2023-02-01T01:55:28.496Z,5.77
2023-02-01T01:57:59.286Z,5.82
2023-02-01T02:00:25.806Z,5.89
2023-02-01T02:02:56.258Z,5.91
2023-02-01T02:05:22.856Z,5.93
2023-02-01T02:07:51.819Z,5.87
2023-02-01T02:10:19.161Z,5.94
2023-02-01T02:12:49.367Z,5.93
2023-02-01T02:15:17.234Z,5.89
2023-02-01T02:17:49.040Z,5.91
2023-02-01T02:20:31.924Z,5.89
2023-02-01T02:23:11.304Z,5.98
2023-02-01T02:25:47.976Z,5.93
2023-02-01T02:28:20.499Z,5.91
2023-02-01T02:30:50.627Z,5.95
2023-02-01T02:33:20.080Z,5.91
2023-02-01T02:35:58.208Z,5.85
2023-02-01T02:38:50.123Z,5.87
2023-02-01T02:41:41.944Z,5.84
2023-02-01T02:44:53.284Z,5.82
2023-02-01T02:47:28.777Z,5.79
2023-02-01T02:50:16.350Z,5.80
2023-02-01T02:53:04.314Z,5.79
2023-02-01T02:55:33.380Z,5.73
2023-02-01T02:58:19.024Z,5.78
2023-02-01T03:01:04.368Z,5.79
2023-02-01T03:03:49.470Z,5.82
2023-02-01T03:06:18.781Z,5.85
2023-02-01T03:08:46.398Z,5.80
2023-02-01T03:11:15.228Z,5.74
2023-02-01T03:13:52.710Z,5.71
2023-02-01T03:16:27.161Z,5.72
2023-02-01T03:18:56.169Z,5.61
2023-02-01T03:21:27.818Z,5.56
2023-02-01T03:23:56.112Z,5.45
2023-02-01T03:26:23.168Z,5.47
2023-02-01T03:28:54.457Z,5.40
2023-02-01T03:31:21.093Z,5.40
2023-02-01T03:33:48.193Z,5.39
2023-02-01T03:36:17.504Z,5.44
2023-02-01T03:39:04.753Z,5.45
2023-02-01T03:41:40.796Z,5.49
2023-02-01T03:44:20.424Z,5.54
2023-02-01T03:46:53.989Z,5.64
2023-02-01T03:49:26.413Z,5.66
2023-02-01T03:51:53.836Z,5.69
2023-02-01T03:54:20.737Z,5.75
2023-02-01T03:56:48.601Z,5.73
2023-02-01T03:59:16.009Z,5.78
2023-02-01T04:01:43.359Z,5.83
2023-02-01T04:04:10.532Z,5.85
2023-02-01T04:06:37.005Z,5.79
2023-02-01T04:09:03.699Z,5.83
2023-02-01T04:11:30.163Z,5.83
2023-02-01T04:13:57.114Z,5.81
2023-02-01T04:16:23.604Z,5.79
2023-02-01T04:18:50.631Z,5.77
2023-02-01T04:21:17.533Z,5.73
2023-02-01T04:23:44.050Z,5.74
2023-02-01T04:26:10.965Z,5.74
2023-02-01T04:28:37.894Z,5.69
2023-02-01T04:31:05.169Z,5.65
2023-02-01T04:33:32.817Z,5.66
2023-02-01T04:35:59.874Z,5.79
2023-02-01T04:38:27.938Z,5.76
2023-02-01T04:40:54.835Z,5.74
2023-02-01T04:43:21.775Z,5.71
2023-02-01T04:45:51.546Z,5.80
2023-02-01T04:48:19.244Z,5.77
2023-02-01T04:50:50.157Z,5.75
2023-02-01T04:53:17.193Z,5.80
2023-02-01T04:55:44.632Z,5.73
2023-02-01T04:58:12.140Z,5.79
2023-02-01T05:00:38.740Z,5.75
2023-02-01T05:03:06.294Z,5.75
2023-02-01T05:05:33.840Z,5.78
2023-02-01T05:08:00.259Z,5.74
2023-02-01T05:10:27.121Z,5.80
2023-02-01T05:13:12.346Z,5.77
2023-02-01T05:15:38.804Z,5.75
2023-02-01T05:18:05.906Z,5.75
2023-02-01T05:20:32.474Z,5.76
2023-02-01T05:22:59.437Z,5.73
2023-02-01T05:25:26.377Z,5.76
2023-02-01T05:27:53.976Z,5.76
2023-02-01T05:30:21.174Z,5.78
2023-02-01T05:32:51.166Z,5.82
2023-02-01T05:35:17.570Z,5.78
2023-02-01T05:37:44.520Z,5.82
2023-02-01T05:40:11.354Z,5.80
2023-02-01T05:42:38.382Z,5.77
2023-02-01T05:45:06.222Z,5.86
2023-02-01T05:47:32.781Z,5.83
2023-02-01T05:49:59.292Z,5.78
2023-02-01T05:52:25.823Z,5.84
2023-02-01T05:54:53.673Z,5.79
2023-02-01T05:57:20.782Z,5.78
2023-02-01T05:59:48.589Z,5.81
2023-02-01T06:02:16.667Z,5.72
2023-02-01T06:04:43.663Z,5.72
2023-02-01T06:07:11.502Z,5.69
2023-02-01T06:09:38.436Z,5.65
2023-02-01T06:12:05.572Z,5.65
2023-02-01T06:14:32.020Z,5.57
2023-02-01T06:16:58.536Z,5.61
2023-02-01T06:19:25.288Z,5.62
2023-02-01T06:21:52.733Z,5.55
2023-02-01T06:24:19.679Z,5.59
2023-02-01T06:26:46.706Z,5.49
2023-02-01T06:29:14.317Z,5.49
2023-02-01T06:31:41.550Z,5.51
2023-02-01T06:34:08.077Z,5.47
2023-02-01T06:36:35.069Z,5.38
2023-02-01T06:39:02.275Z,5.30
2023-02-01T06:41:29.855Z,5.28
2023-02-01T06:43:56.878Z,5.29
2023-02-01T06:46:23.617Z,5.28
2023-02-01T06:48:51.991Z,5.35
2023-02-01T06:51:25.996Z,5.38
2023-02-01T06:53:53.250Z,5.44
2023-02-01T06:56:20.744Z,5.45
2023-02-01T06:58:47.870Z,5.47
2023-02-01T07:01:14.912Z,5.56
2023-02-01T07:03:42.299Z,5.56
2023-02-01T07:06:09.951Z,5.56
2023-02-01T07:08:38.676Z,5.60
2023-02-01T07:11:09.657Z,5.55
2023-02-01T07:13:37.181Z,5.50
2023-02-01T07:16:05.145Z,5.39
2023-02-01T07:18:32.114Z,5.40
2023-02-01T07:20:59.591Z,5.48
2023-02-01T07:23:26.999Z,5.49
2023-02-01T07:25:57.469Z,5.56
2023-02-01T07:28:24.581Z,5.59
2023-02-01T07:30:51.989Z,5.55
2023-02-01T07:33:20.048Z,5.62
2023-02-01T07:35:47.558Z,5.58
2023-02-01T07:38:14.666Z,5.57
2023-02-01T07:40:41.957Z,5.60
2023-02-01T07:43:08.816Z,5.59
2023-02-01T07:45:37.121Z,5.53
2023-02-01T07:48:04.216Z,5.54
2023-02-01T07:50:30.993Z,5.49
2023-02-01T07:52:59.398Z,5.43
2023-02-01T07:55:26.364Z,5.44
2023-02-01T07:57:52.912Z,5.38
2023-02-01T08:00:38.537Z,5.44
2023-02-01T08:03:05.930Z,5.56
2023-02-01T08:05:32.889Z,5.61
2023-02-01T08:07:59.773Z,5.69
2023-02-01T08:10:26.956Z,5.70
2023-02-01T08:12:58.427Z,5.75
2023-02-01T08:15:24.932Z,5.72
2023-02-01T08:17:51.735Z,5.76
2023-02-01T08:20:19.282Z,5.83
2023-02-01T08:22:46.019Z,5.79
2023-02-01T08:25:12.601Z,5.79
2023-02-01T08:27:39.067Z,5.80
2023-02-01T08:30:09.663Z,5.83
2023-02-01T08:32:36.521Z,5.83
2023-02-01T08:35:03.684Z,5.89
2023-02-01T08:37:30.847Z,5.92
2023-02-01T08:39:57.464Z,5.96
2023-02-01T08:42:42.648Z,6.05
2023-02-01T08:45:09.971Z,6.15
2023-02-01T08:47:39.865Z,6.20
2023-02-01T08:50:06.529Z,6.27
2023-02-01T08:52:33.104Z,6.23
2023-02-01T08:54:59.736Z,6.23
2023-02-01T08:57:26.194Z,6.32
2023-02-01T08:59:52.709Z,6.30
2023-02-01T09:02:19.147Z,6.43
2023-02-01T09:04:45.605Z,6.41
2023-02-01T09:07:13.973Z,6.35
2023-02-01T09:09:41.175Z,6.31
2023-02-01T09:12:08.095Z,6.33
2023-02-01T09:14:34.761Z,6.26
2023-02-01T09:17:01.670Z,6.32
2023-02-01T09:19:28.683Z,6.27
2023-02-01T09:21:55.709Z,6.27
2023-02-01T09:24:23.396Z,6.20
2023-02-01T09:26:50.344Z,6.21
2023-02-01T09:29:17.252Z,6.25
2023-02-01T10:07:32.771Z,5.77
2023-02-01T10:09:59.955Z,5.72
2023-02-01T10:26:33.979Z,5.68
2023-02-01T10:32:44.853Z,5.77
2023-02-01T10:35:40.549Z,5.87
2023-02-01T10:38:20.246Z,5.94
2023-02-01T10:44:15.156Z,5.95
2023-02-01T10:47:02.571Z,5.95
2023-02-01T10:49:42.171Z,6.02
2023-02-01T10:52:11.897Z,6.08
2023-02-01T10:54:39.621Z,6.05
2023-02-01T10:57:12.365Z,6.08
2023-02-01T10:59:39.573Z,6.07
2023-02-01T11:02:30.024Z,6.03
2023-02-01T11:05:07.992Z,6.08
2023-02-01T11:07:34.637Z,6.15
2023-02-01T11:10:01.137Z,6.19
2023-02-01T11:12:39.930Z,6.31
2023-02-01T11:15:23.794Z,6.30
2023-02-01T11:18:01.539Z,6.40
2023-02-01T11:20:41.707Z,6.48
2023-02-01T11:23:16.670Z,6.43
2023-02-01T11:25:52.660Z,6.48
2023-02-01T11:28:21.153Z,6.38
2023-02-01T11:30:55.157Z,6.38
2023-02-01T11:34:08.900Z,6.33
2023-02-01T11:36:39.291Z,6.43
2023-02-01T11:39:30.752Z,6.40
2023-02-01T11:42:28.109Z,6.40
2023-02-01T11:48:21.517Z,6.42
2023-02-01T11:51:18.200Z,6.44
2023-02-01T11:54:01.243Z,6.52
2023-02-01T11:56:34.560Z,6.58
2023-02-01T11:59:19.336Z,6.55
2023-02-01T12:01:58.289Z,6.65
2023-02-01T12:04:44.243Z,6.69
2023-02-01T12:07:33.779Z,6.61
2023-02-01T12:10:19.040Z,6.67
2023-02-01T12:13:04.540Z,6.66
2023-02-01T12:15:36.825Z,6.63
2023-02-01T12:18:12.947Z,6.63
2023-02-01T12:20:51.783Z,6.64
2023-02-01T12:23:27.072Z,6.59
2023-02-01T12:25:53.473Z,6.59
2023-02-01T12:28:44.775Z,6.63
2023-02-01T12:31:33.973Z,6.59
2023-02-01T12:34:09.863Z,6.56
2023-02-01T12:37:19.586Z,6.64
2023-02-01T12:39:58.755Z,6.62
2023-02-01T12:43:07.046Z,6.71
2023-02-01T12:46:21.238Z,6.68
2023-02-01T12:51:41.137Z,6.86
2023-02-01T12:54:21.812Z,6.89
2023-02-01T12:56:55.745Z,6.99
2023-02-01T12:59:35.419Z,7.03
2023-02-01T13:02:23.283Z,7.01
2023-02-01T13:05:14.895Z,7.08
2023-02-01T13:07:54.902Z,6.98
2023-02-01T13:11:05.239Z,6.92
2023-02-01T13:13:54.067Z,6.95
2023-02-01T13:16:32.246Z,6.94
2023-02-01T13:19:10.906Z,7.01
2023-02-01T13:22:06.225Z,6.96
2023-02-01T13:24:52.010Z,7.03
2023-02-01T13:27:18.743Z,7.06
2023-02-01T13:29:52.913Z,7.09
2023-02-01T13:33:50.754Z,6.98
2023-02-01T13:35:19.481Z,6.98
2023-02-01T13:38:01.441Z,6.96
2023-02-01T13:40:28.292Z,7.00
2023-02-01T13:42:57.294Z,6.96
2023-02-01T13:45:29.414Z,6.97
2023-02-01T13:47:57.855Z,6.95
2023-02-01T13:50:30.777Z,6.92
2023-02-01T13:53:09.831Z,7.02
2023-02-01T13:55:37.538Z,6.97
2023-02-01T13:58:07.517Z,7.07
2023-02-01T14:00:37.844Z,7.05
2023-02-01T14:03:07.790Z,7.06
2023-02-01T14:05:37.655Z,7.07
2023-02-01T14:08:04.117Z,7.03
2023-02-01T14:10:46.206Z,7.02
2023-02-01T14:13:25.001Z,7.02
2023-02-01T14:16:04.290Z,7.08
2023-02-01T14:18:37.385Z,7.13
2023-02-01T14:21:29.968Z,7.03
2023-02-01T14:24:08.840Z,7.10
2023-02-01T14:26:35.371Z,7.16
2023-02-01T14:29:04.881Z,7.10
2023-02-01T14:31:32.565Z,7.13
2023-02-01T14:34:00.464Z,7.22
2023-02-01T14:36:28.274Z,7.21
2023-02-01T14:38:55.351Z,7.26
2023-02-01T14:41:43.143Z,7.21
2023-02-01T14:44:09.628Z,7.13
2023-02-01T14:46:56.038Z,6.86
2023-02-01T14:49:26.156Z,6.43
2023-02-01T14:51:53.918Z,6.03
2023-02-01T14:54:20.597Z,5.73
2023-02-01T15:42:58.734Z,5.75
2023-02-01T15:45:56.110Z,5.85
2023-02-01T16:04:59.094Z,6.22
2023-02-01T16:14:05.185Z,6.24
2023-02-01T16:30:37.863Z,4.51
2023-02-01T16:35:58.179Z,4.43
2023-02-01T16:38:24.811Z,4.41
2023-02-01T16:40:51.945Z,4.43
2023-02-01T16:43:19.698Z,4.40
2023-02-01T16:45:50.174Z,4.46
2023-02-01T16:48:30.731Z,4.59
2023-02-01T16:50:59.064Z,4.68
2023-02-01T16:53:27.001Z,4.79
2023-02-01T16:55:54.060Z,4.91
2023-02-01T16:58:21.670Z,5.09
2023-02-01T17:00:48.835Z,5.13
2023-02-01T17:03:17.606Z,5.20
2023-02-01T17:05:48.952Z,5.30
2023-02-01T17:08:19.766Z,5.40
2023-02-01T17:10:46.368Z,5.45
2023-02-01T17:13:16.560Z,5.43
2023-02-01T17:15:49.498Z,5.44
2023-02-01T17:18:17.525Z,5.48
2023-02-01T17:20:44.543Z,5.44
2023-02-01T17:23:11.588Z,5.44
2023-02-01T17:25:38.040Z,5.41
2023-02-01T17:28:04.634Z,5.50
2023-02-01T17:30:32.014Z,5.51
2023-02-01T17:32:58.471Z,5.55
2023-02-01T17:35:26.998Z,5.59
2023-02-01T17:37:53.985Z,5.65
2023-02-01T17:40:20.596Z,5.78
2023-02-01T17:42:47.426Z,5.88
2023-02-01T17:45:22.477Z,5.82
2023-02-01T17:47:49.687Z,5.77
2023-02-01T17:50:16.316Z,5.78
2023-02-01T17:52:42.730Z,5.83
2023-02-01T17:55:16.394Z,5.79
2023-02-01T17:57:42.933Z,5.79
2023-02-01T18:00:10.144Z,5.79
2023-02-01T18:02:36.599Z,5.72
2023-02-01T18:05:10.239Z,5.72
2023-02-01T18:07:37.227Z,5.66
2023-02-01T18:10:04.045Z,5.59
2023-02-01T18:12:31.791Z,5.51
2023-02-01T18:14:58.721Z,5.49
2023-02-01T18:17:25.295Z,5.45
2023-02-01T18:19:51.727Z,5.26
2023-02-01T18:22:20.707Z,5.20
2023-02-01T18:24:47.223Z,5.11
2023-02-01T18:27:13.755Z,5.09
2023-02-01T18:29:40.246Z,5.09
2023-02-01T18:32:06.757Z,5.09
2023-02-01T18:34:33.307Z,5.09
2023-02-01T18:37:00.541Z,5.15
2023-02-01T18:39:26.967Z,5.18
2023-02-01T18:41:53.401Z,5.24
2023-02-01T18:44:19.834Z,5.28
2023-02-01T18:46:46.347Z,5.36
2023-02-01T18:49:17.945Z,5.41
2023-02-01T18:51:45.240Z,5.49
2023-02-01T18:54:12.352Z,5.49
2023-02-01T18:56:39.041Z,5.50
2023-02-01T18:59:05.620Z,5.51
2023-02-01T19:01:32.282Z,5.55
2023-02-01T19:04:12.313Z,5.61
2023-02-01T19:06:41.162Z,5.59
2023-02-01T19:09:07.855Z,5.63
2023-02-01T19:11:34.268Z,5.71
2023-02-01T19:14:01.231Z,5.76
2023-02-01T19:16:27.770Z,5.86
2023-02-01T19:18:54.259Z,5.98
2023-02-01T19:21:20.807Z,5.96
2023-02-01T19:23:47.853Z,5.97
2023-02-01T19:42:59.838Z,6.26
2023-02-01T19:45:26.662Z,6.26
2023-02-01T19:47:53.420Z,6.35
2023-02-01T19:50:22.313Z,6.41
2023-02-01T19:52:49.655Z,6.33
2023-02-01T19:55:16.342Z,6.34
2023-02-01T19:57:43.901Z,6.29
2023-02-01T20:00:17.018Z,6.09
2023-02-01T20:02:43.883Z,5.88
2023-02-01T20:05:11.743Z,5.74
2023-02-01T20:07:39.171Z,5.65
2023-02-01T20:10:07.141Z,5.54
2023-02-01T20:12:34.142Z,5.53
2023-02-01T20:15:01.199Z,5.49
2023-02-01T20:17:27.907Z,5.57
2023-02-01T20:19:54.852Z,5.80
2023-02-01T20:22:21.454Z,6.00
2023-02-01T20:24:47.986Z,6.14
2023-02-01T20:27:15.372Z,6.26
2023-02-01T20:29:41.974Z,6.33
2023-02-01T20:32:08.792Z,6.38
2023-02-01T20:34:35.586Z,6.35
2023-02-01T20:37:02.148Z,6.36
2023-02-01T20:39:29.239Z,6.37
2023-02-01T20:41:56.938Z,6.36
2023-02-01T20:44:23.801Z,6.37
2023-02-01T20:46:51.000Z,6.43
2023-02-01T20:49:17.619Z,6.43
2023-02-01T20:51:44.167Z,6.39
2023-02-01T20:54:10.769Z,6.42
2023-02-01T20:56:39.520Z,6.35
2023-02-01T20:59:12.193Z,6.37
2023-02-01T21:01:51.851Z,6.46
2023-02-01T21:04:27.264Z,6.40
2023-02-01T21:06:58.851Z,6.47
2023-02-01T21:09:26.565Z,6.48
2023-02-01T21:11:53.552Z,6.40
2023-02-01T21:14:40.149Z,6.42
2023-02-01T21:17:06.730Z,6.41
2023-02-01T21:19:43.067Z,6.42
2023-02-01T21:22:14.785Z,6.52
2023-02-01T21:24:42.303Z,6.47
2023-02-01T21:27:09.910Z,6.35
2023-02-01T21:29:36.732Z,6.49
2023-02-01T21:32:07.309Z,6.38
2023-02-01T21:34:35.014Z,6.42
2023-02-01T21:37:01.698Z,6.39
2023-02-01T21:39:29.177Z,6.38
2023-02-01T21:42:16.539Z,6.42
2023-02-01T21:44:46.150Z,6.28
2023-02-01T21:47:13.973Z,6.29
2023-02-01T21:49:41.006Z,6.20
2023-02-01T21:52:07.804Z,6.20
2023-02-01T21:54:34.417Z,6.26
2023-02-01T21:57:01.159Z,6.29
2023-02-01T21:59:27.898Z,6.20
2023-02-01T22:01:54.508Z,6.09
2023-02-01T22:04:21.126Z,6.06
2023-02-01T22:06:47.701Z,6.07
2023-02-01T22:09:23.978Z,6.16
2023-02-01T22:11:52.042Z,6.16
2023-02-01T22:14:19.712Z,6.22
2023-02-01T22:16:46.581Z,6.27
2023-02-01T22:19:13.581Z,6.35
2023-02-01T22:21:45.697Z,6.38
2023-02-01T22:24:16.154Z,6.36
2023-02-01T22:26:43.407Z,6.50
2023-02-01T22:29:13.121Z,6.51
2023-02-01T22:31:40.101Z,6.57
2023-02-01T22:34:06.875Z,6.51
2023-02-01T22:36:33.687Z,6.45
2023-02-01T22:39:00.444Z,6.39
2023-02-01T22:41:27.067Z,6.36
2023-02-01T22:43:53.666Z,6.36
2023-02-01T22:46:22.893Z,6.35
2023-02-01T22:48:49.475Z,6.40
2023-02-01T22:51:24.397Z,6.32
2023-02-01T22:53:57.189Z,6.30
2023-02-01T22:56:30.270Z,6.32
2023-02-01T22:58:59.323Z,6.33
2023-02-01T23:01:26.060Z,6.36
2023-02-01T23:03:56.859Z,6.43
2023-02-01T23:06:23.986Z,6.32
2023-02-01T23:08:55.156Z,6.32
2023-02-01T23:11:21.814Z,6.27
2023-02-01T23:13:48.386Z,6.17
2023-02-01T23:16:15.054Z,6.19
2023-02-01T23:18:41.939Z,6.11
2023-02-01T23:21:11.265Z,6.16
2023-02-01T23:23:37.935Z,6.08
2023-02-01T23:26:05.912Z,6.08
2023-02-01T23:28:33.081Z,6.05
2023-02-01T23:30:59.752Z,6.08
2023-02-01T23:33:27.392Z,6.09
2023-02-01T23:36:02.012Z,6.14
2023-02-01T23:38:30.215Z,6.18
2023-02-01T23:41:05.885Z,6.20
2023-02-01T23:44:08.589Z,6.19
2023-02-01T23:46:38.292Z,6.24
2023-02-01T23:49:06.738Z,6.27
2023-02-01T23:51:33.505Z,6.29
2023-02-01T23:54:01.070Z,6.22
2023-02-01T23:56:46.595Z,6.24
2023-02-01T23:59:15.017Z,6.28
